sensor_id;sensor_type;location;lat;lon;timestamp;P1;durP1;ratioP1;P2;durP2;ratioP2
85815;SDS011;76552;51.206;4.424;2024-02-26T00:00:02;8.12;;;3.38;;
85815;SDS011;76552;51.206;4.424;2024-02-26T00:00:10;7.84;;;3.36;;
85815;SDS011;76552;51.206;4.424;2024-02-26T00:00:15;7.65;;;3.42;;
85815;SDS011;76552;51.206;4.424;2024-02-26T00:00:21;7.97;;;3.53;;
85815;SDS011;76552;51.206;4.424;2024-02-26T00:00:26;8.02;;;3.72;;
85815;SDS011;76552;51.206;4.424;2024-02-26T00:00:31;8.00;;;3.87;;
85815;SDS011;76552;51.206;4.424;2024-02-26T00:00:37;8.33;;;3.93;;
85815;SDS011;76552;51.206;4.424;2024-02-26T00:00:42;8.73;;;4.05;;
85815;SDS011;76552;51.206;4.424;2024-02-26T00:00:48;8.47;;;4.03;;
85815;SDS011;76552;51.206;4.424;2024-02-26T00:00:53;8.00;;;3.85;;
85815;SDS011;76552;51.206;4.424;2024-02-26T00:00:58;7.47;;;3.60;;
85815;SDS011;76552;51.206;4.424;2024-02-26T00:01:04;7.20;;;3.60;;
85815;SDS011;76552;51.206;4.424;2024-02-26T00:01:09;6.75;;;3.58;;
85815;SDS011;76552;51.206;4.424;2024-02-26T00:01:15;6.47;;;3.40;;
85815;SDS011;76552;51.206;4.424;2024-02-26T00:01:20;6.60;;;3.53;;
85815;SDS011;76552;51.206;4.424;2024-02-26T00:01:26;6.93;;;3.60;;
85815;SDS011;76552;51.206;4.424;2024-02-26T00:01:32;7.65;;;3.60;;
85815;SDS011;76552;51.206;4.424;2024-02-26T00:01:38;7.43;;;3.50;;
85815;SDS011;76552;51.206;4.424;2024-02-26T00:01:43;7.27;;;3.50;;
85815;SDS011;76552;51.206;4.424;2024-02-26T00:01:49;7.20;;;3.50;;
85815;SDS011;76552;51.206;4.424;2024-02-26T00:01:54;7.18;;;3.40;;
85815;SDS011;76552;51.206;4.424;2024-02-26T00:01:59;6.70;;;3.40;;
85815;SDS011;76552;51.206;4.424;2024-02-26T00:02:05;6.60;;;3.40;;
85815;SDS011;76552;51.206;4.424;2024-02-26T00:02:10;7.00;;;3.53;;
85815;SDS011;76552;51.206;4.424;2024-02-26T00:02:15;7.23;;;3.53;;
85815;SDS011;76552;51.206;4.424;2024-02-26T00:02:21;7.20;;;3.53;;
85815;SDS011;76552;51.206;4.424;2024-02-26T00:02:26;7.20;;;3.60;;
85815;SDS011;76552;51.206;4.424;2024-02-26T00:02:32;7.07;;;3.50;;
85815;SDS011;76552;51.206;4.424;2024-02-26T00:02:42;7.20;;;3.46;;
85815;SDS011;76552;51.206;4.424;2024-02-26T00:02:47;6.95;;;3.40;;
85815;SDS011;76552;51.206;4.424;2024-02-26T00:02:52;6.53;;;3.30;;
85815;SDS011;76552;51.206;4.424;2024-02-26T00:02:58;6.60;;;3.30;;
85815;SDS011;76552;51.206;4.424;2024-02-26T00:03:03;6.97;;;3.38;;
85815;SDS011;76552;51.206;4.424;2024-02-26T00:03:08;7.23;;;3.37;;
85815;SDS011;76552;51.206;4.424;2024-02-26T00:03:13;8.33;;;3.53;;
85815;SDS011;76552;51.206;4.424;2024-02-26T00:03:19;8.75;;;3.55;;
85815;SDS011;76552;51.206;4.424;2024-02-26T00:03:24;8.67;;;3.57;;
85815;SDS011;76552;51.206;4.424;2024-02-26T00:03:29;8.17;;;3.50;;
85815;SDS011;76552;51.206;4.424;2024-02-26T00:03:35;7.80;;;3.37;;
85815;SDS011;76552;51.206;4.424;2024-02-26T00:03:40;7.32;;;3.33;;
85815;SDS011;76552;51.206;4.424;2024-02-26T00:03:47;6.13;;;3.17;;
85815;SDS011;76552;51.206;4.424;2024-02-26T00:03:52;6.10;;;3.10;;
85815;SDS011;76552;51.206;4.424;2024-02-26T00:03:59;6.54;;;3.20;;
85815;SDS011;76552;51.206;4.424;2024-02-26T00:04:04;6.63;;;3.30;;
85815;SDS011;76552;51.206;4.424;2024-02-26T00:04:10;6.53;;;3.23;;
85815;SDS011;76552;51.206;4.424;2024-02-26T00:04:15;6.57;;;3.25;;
85815;SDS011;76552;51.206;4.424;2024-02-26T00:04:21;6.88;;;3.33;;
85815;SDS011;76552;51.206;4.424;2024-02-26T00:04:27;6.97;;;3.35;;
85815;SDS011;76552;51.206;4.424;2024-02-26T00:04:32;6.63;;;3.30;;
85815;SDS011;76552;51.206;4.424;2024-02-26T00:04:37;6.73;;;3.30;;
85815;SDS011;76552;51.206;4.424;2024-02-26T00:04:43;6.88;;;3.28;;
85815;SDS011;76552;51.206;4.424;2024-02-26T00:04:48;6.83;;;3.27;;
85815;SDS011;76552;51.206;4.424;2024-02-26T00:04:53;6.77;;;3.30;;
85815;SDS011;76552;51.206;4.424;2024-02-26T00:04:58;6.80;;;3.30;;
85815;SDS011;76552;51.206;4.424;2024-02-26T00:05:05;7.95;;;3.38;;
85815;SDS011;76552;51.206;4.424;2024-02-26T00:05:10;7.93;;;3.38;;
85815;SDS011;76552;51.206;4.424;2024-02-26T00:05:15;7.70;;;3.23;;
85815;SDS011;76552;51.206;4.424;2024-02-26T00:05:21;7.60;;;3.20;;
85815;SDS011;76552;51.206;4.424;2024-02-26T00:05:26;7.43;;;3.10;;
85815;SDS011;76552;51.206;4.424;2024-02-26T00:05:31;6.70;;;3.10;;
85815;SDS011;76552;51.206;4.424;2024-02-26T00:05:37;6.57;;;3.05;;
85815;SDS011;76552;51.206;4.424;2024-02-26T00:05:44;6.62;;;3.18;;
85815;SDS011;76552;51.206;4.424;2024-02-26T00:05:49;6.77;;;3.30;;
85815;SDS011;76552;51.206;4.424;2024-02-26T00:05:54;6.77;;;3.30;;
85815;SDS011;76552;51.206;4.424;2024-02-26T00:06:01;6.53;;;3.20;;
85815;SDS011;76552;51.206;4.424;2024-02-26T00:06:07;6.50;;;3.17;;
85815;SDS011;76552;51.206;4.424;2024-02-26T00:06:12;6.57;;;3.10;;
85815;SDS011;76552;51.206;4.424;2024-02-26T00:06:18;6.40;;;3.08;;
85815;SDS011;76552;51.206;4.424;2024-02-26T00:06:23;6.57;;;3.07;;
85815;SDS011;76552;51.206;4.424;2024-02-26T00:06:29;6.57;;;3.10;;
85815;SDS011;76552;51.206;4.424;2024-02-26T00:06:35;6.63;;;3.25;;
85815;SDS011;76552;51.206;4.424;2024-02-26T00:06:42;6.60;;;3.35;;
85815;SDS011;76552;51.206;4.424;2024-02-26T00:06:47;6.80;;;3.30;;
85815;SDS011;76552;51.206;4.424;2024-02-26T00:06:55;6.32;;;3.12;;
85815;SDS011;76552;51.206;4.424;2024-02-26T00:07:01;6.07;;;3.03;;
85815;SDS011;76552;51.206;4.424;2024-02-26T00:07:06;6.13;;;2.90;;
85815;SDS011;76552;51.206;4.424;2024-02-26T00:07:11;6.17;;;2.93;;
85815;SDS011;76552;51.206;4.424;2024-02-26T00:07:17;6.00;;;2.90;;
85815;SDS011;76552;51.206;4.424;2024-02-26T00:07:22;6.37;;;3.00;;
85815;SDS011;76552;51.206;4.424;2024-02-26T00:07:27;6.77;;;3.10;;
85815;SDS011;76552;51.206;4.424;2024-02-26T00:07:33;6.90;;;3.20;;
85815;SDS011;76552;51.206;4.424;2024-02-26T00:07:38;6.53;;;3.17;;
85815;SDS011;76552;51.206;4.424;2024-02-26T00:07:44;6.32;;;3.13;;
85815;SDS011;76552;51.206;4.424;2024-02-26T00:07:50;6.28;;;3.17;;
85815;SDS011;76552;51.206;4.424;2024-02-26T00:07:55;6.10;;;3.17;;
85815;SDS011;76552;51.206;4.424;2024-02-26T00:08:01;6.07;;;3.10;;
85815;SDS011;76552;51.206;4.424;2024-02-26T00:08:06;5.93;;;3.17;;
85815;SDS011;76552;51.206;4.424;2024-02-26T00:08:12;5.93;;;3.22;;
85815;SDS011;76552;51.206;4.424;2024-02-26T00:08:17;6.27;;;3.30;;
85815;SDS011;76552;51.206;4.424;2024-02-26T00:08:22;6.53;;;3.40;;
85815;SDS011;76552;51.206;4.424;2024-02-26T00:08:28;6.53;;;3.37;;
85815;SDS011;76552;51.206;4.424;2024-02-26T00:08:33;6.70;;;3.40;;
85815;SDS011;76552;51.206;4.424;2024-02-26T00:08:38;6.80;;;3.25;;
85815;SDS011;76552;51.206;4.424;2024-02-26T00:08:44;6.50;;;3.20;;
85815;SDS011;76552;51.206;4.424;2024-02-26T00:08:50;6.38;;;3.13;;
85815;SDS011;76552;51.206;4.424;2024-02-26T00:08:55;6.47;;;3.20;;
85815;SDS011;76552;51.206;4.424;2024-02-26T00:09:00;6.80;;;3.20;;
85815;SDS011;76552;51.206;4.424;2024-02-26T00:09:08;6.77;;;3.17;;
85815;SDS011;76552;51.206;4.424;2024-02-26T00:09:13;7.28;;;3.20;;
85815;SDS011;76552;51.206;4.424;2024-02-26T00:09:18;7.20;;;3.10;;
85815;SDS011;76552;51.206;4.424;2024-02-26T00:09:23;6.97;;;3.03;;
85815;SDS011;76552;51.206;4.424;2024-02-26T00:09:29;6.70;;;2.93;;
85815;SDS011;76552;51.206;4.424;2024-02-26T00:09:35;6.65;;;3.00;;
85815;SDS011;76552;51.206;4.424;2024-02-26T00:09:42;6.17;;;3.10;;
85815;SDS011;76552;51.206;4.424;2024-02-26T00:09:47;6.33;;;3.17;;
85815;SDS011;76552;51.206;4.424;2024-02-26T00:09:52;6.45;;;3.22;;
85815;SDS011;76552;51.206;4.424;2024-02-26T00:09:58;6.80;;;3.27;;
85815;SDS011;76552;51.206;4.424;2024-02-26T00:10:03;6.93;;;3.30;;
85815;SDS011;76552;51.206;4.424;2024-02-26T00:10:09;6.90;;;3.20;;
85815;SDS011;76552;51.206;4.424;2024-02-26T00:10:14;6.97;;;3.20;;
85815;SDS011;76552;51.206;4.424;2024-02-26T00:10:19;7.20;;;3.17;;
85815;SDS011;76552;51.206;4.424;2024-02-26T00:10:25;6.90;;;3.10;;
85815;SDS011;76552;51.206;4.424;2024-02-26T00:10:30;6.30;;;3.03;;
85815;SDS011;76552;51.206;4.424;2024-02-26T00:10:35;6.60;;;3.10;;
85815;SDS011;76552;51.206;4.424;2024-02-26T00:10:41;6.63;;;3.17;;
85815;SDS011;76552;51.206;4.424;2024-02-26T00:10:47;6.47;;;3.20;;
85815;SDS011;76552;51.206;4.424;2024-02-26T00:10:53;6.50;;;3.20;;
85815;SDS011;76552;51.206;4.424;2024-02-26T00:10:58;7.03;;;3.17;;
85815;SDS011;76552;51.206;4.424;2024-02-26T00:11:03;6.93;;;3.10;;
85815;SDS011;76552;51.206;4.424;2024-02-26T00:11:09;6.90;;;3.10;;
85815;SDS011;76552;51.206;4.424;2024-02-26T00:11:14;7.20;;;3.10;;
85815;SDS011;76552;51.206;4.424;2024-02-26T00:11:19;7.32;;;3.10;;
85815;SDS011;76552;51.206;4.424;2024-02-26T00:11:24;7.30;;;3.20;;
85815;SDS011;76552;51.206;4.424;2024-02-26T00:11:30;6.83;;;3.27;;
85815;SDS011;76552;51.206;4.424;2024-02-26T00:11:36;6.83;;;3.23;;
85815;SDS011;76552;51.206;4.424;2024-02-26T00:11:41;6.58;;;3.20;;
85815;SDS011;76552;51.206;4.424;2024-02-26T00:11:46;6.77;;;3.27;;
85815;SDS011;76552;51.206;4.424;2024-02-26T00:11:52;6.63;;;3.20;;
85815;SDS011;76552;51.206;4.424;2024-02-26T00:11:58;6.60;;;3.20;;
85815;SDS011;76552;51.206;4.424;2024-02-26T00:12:04;6.83;;;3.27;;
85815;SDS011;76552;51.206;4.424;2024-02-26T00:12:09;7.00;;;3.20;;
85815;SDS011;76552;51.206;4.424;2024-02-26T00:12:15;6.57;;;3.10;;
85815;SDS011;76552;51.206;4.424;2024-02-26T00:12:20;6.47;;;3.20;;
85815;SDS011;76552;51.206;4.424;2024-02-26T00:12:25;6.40;;;3.13;;
85815;SDS011;76552;51.206;4.424;2024-02-26T00:12:31;6.23;;;3.13;;
85815;SDS011;76552;51.206;4.424;2024-02-26T00:12:36;5.87;;;3.13;;
85815;SDS011;76552;51.206;4.424;2024-02-26T00:12:42;5.72;;;3.10;;
85815;SDS011;76552;51.206;4.424;2024-02-26T00:12:47;5.70;;;3.05;;
85815;SDS011;76552;51.206;4.424;2024-02-26T00:12:53;5.60;;;3.00;;
85815;SDS011;76552;51.206;4.424;2024-02-26T00:12:58;6.13;;;3.00;;
85815;SDS011;76552;51.206;4.424;2024-02-26T00:13:03;6.38;;;2.95;;
85815;SDS011;76552;51.206;4.424;2024-02-26T00:13:08;7.10;;;3.07;;
85815;SDS011;76552;51.206;4.424;2024-02-26T00:13:14;7.27;;;3.20;;
85815;SDS011;76552;51.206;4.424;2024-02-26T00:13:19;7.57;;;3.17;;
85815;SDS011;76552;51.206;4.424;2024-02-26T00:13:25;8.02;;;3.40;;
85815;SDS011;76552;51.206;4.424;2024-02-26T00:13:30;7.90;;;3.47;;
85815;SDS011;76552;51.206;4.424;2024-02-26T00:13:36;8.37;;;3.60;;
85815;SDS011;76552;51.206;4.424;2024-02-26T00:13:41;7.63;;;3.45;;
85815;SDS011;76552;51.206;4.424;2024-02-26T00:13:47;7.47;;;3.43;;
85815;SDS011;76552;51.206;4.424;2024-02-26T00:13:52;7.35;;;3.25;;
85815;SDS011;76552;51.206;4.424;2024-02-26T00:13:57;7.23;;;3.23;;
85815;SDS011;76552;51.206;4.424;2024-02-26T00:14:03;7.30;;;3.23;;
85815;SDS011;76552;51.206;4.424;2024-02-26T00:14:08;7.35;;;3.10;;
85815;SDS011;76552;51.206;4.424;2024-02-26T00:14:13;7.20;;;3.00;;
85815;SDS011;76552;51.206;4.424;2024-02-26T00:14:19;7.30;;;3.03;;
85815;SDS011;76552;51.206;4.424;2024-02-26T00:14:24;7.40;;;3.08;;
85815;SDS011;76552;51.206;4.424;2024-02-26T00:14:30;7.17;;;3.00;;
85815;SDS011;76552;51.206;4.424;2024-02-26T00:14:35;6.85;;;2.90;;
85815;SDS011;76552;51.206;4.424;2024-02-26T00:14:41;6.70;;;2.90;;
85815;SDS011;76552;51.206;4.424;2024-02-26T00:14:46;6.95;;;2.95;;
85815;SDS011;76552;51.206;4.424;2024-02-26T00:14:53;6.80;;;2.90;;
85815;SDS011;76552;51.206;4.424;2024-02-26T00:14:58;6.63;;;2.90;;
85815;SDS011;76552;51.206;4.424;2024-02-26T00:15:05;6.73;;;3.00;;
85815;SDS011;76552;51.206;4.424;2024-02-26T00:15:10;7.08;;;3.00;;
85815;SDS011;76552;51.206;4.424;2024-02-26T00:15:16;6.93;;;2.90;;
85815;SDS011;76552;51.206;4.424;2024-02-26T00:15:21;7.13;;;2.92;;
85815;SDS011;76552;51.206;4.424;2024-02-26T00:15:26;7.07;;;3.00;;
85815;SDS011;76552;51.206;4.424;2024-02-26T00:15:32;7.00;;;3.07;;
85815;SDS011;76552;51.206;4.424;2024-02-26T00:15:40;6.48;;;3.00;;
85815;SDS011;76552;51.206;4.424;2024-02-26T00:15:46;6.35;;;3.00;;
85815;SDS011;76552;51.206;4.424;2024-02-26T00:15:51;6.28;;;2.97;;
85815;SDS011;76552;51.206;4.424;2024-02-26T00:15:56;6.23;;;2.90;;
85815;SDS011;76552;51.206;4.424;2024-02-26T00:16:02;6.20;;;2.83;;
85815;SDS011;76552;51.206;4.424;2024-02-26T00:16:07;6.10;;;2.90;;
85815;SDS011;76552;51.206;4.424;2024-02-26T00:16:12;6.30;;;3.00;;
85815;SDS011;76552;51.206;4.424;2024-02-26T00:16:18;6.20;;;3.10;;
85815;SDS011;76552;51.206;4.424;2024-02-26T00:16:23;6.28;;;3.10;;
85815;SDS011;76552;51.206;4.424;2024-02-26T00:16:29;6.30;;;3.10;;
85815;SDS011;76552;51.206;4.424;2024-02-26T00:16:34;6.35;;;3.10;;
85815;SDS011;76552;51.206;4.424;2024-02-26T00:16:40;6.47;;;3.10;;
85815;SDS011;76552;51.206;4.424;2024-02-26T00:16:46;6.40;;;3.00;;
85815;SDS011;76552;51.206;4.424;2024-02-26T00:16:51;6.32;;;3.00;;
85815;SDS011;76552;51.206;4.424;2024-02-26T00:16:56;5.97;;;2.90;;
85815;SDS011;76552;51.206;4.424;2024-02-26T00:17:02;6.25;;;2.90;;
85815;SDS011;76552;51.206;4.424;2024-02-26T00:17:07;6.47;;;2.87;;
85815;SDS011;76552;51.206;4.424;2024-02-26T00:17:13;6.77;;;2.90;;
85815;SDS011;76552;51.206;4.424;2024-02-26T00:17:18;6.90;;;2.80;;
85815;SDS011;76552;51.206;4.424;2024-02-26T00:17:24;7.17;;;2.97;;
85815;SDS011;76552;51.206;4.424;2024-02-26T00:17:29;6.93;;;3.00;;
85815;SDS011;76552;51.206;4.424;2024-02-26T00:17:35;6.90;;;3.07;;
85815;SDS011;76552;51.206;4.424;2024-02-26T00:17:40;6.68;;;3.00;;
85815;SDS011;76552;51.206;4.424;2024-02-26T00:17:45;6.70;;;3.13;;
85815;SDS011;76552;51.206;4.424;2024-02-26T00:17:50;6.83;;;3.10;;
85815;SDS011;76552;51.206;4.424;2024-02-26T00:17:56;6.73;;;3.13;;
85815;SDS011;76552;51.206;4.424;2024-02-26T00:18:01;6.85;;;3.22;;
85815;SDS011;76552;51.206;4.424;2024-02-26T00:18:06;7.20;;;3.37;;
85815;SDS011;76552;51.206;4.424;2024-02-26T00:18:12;6.90;;;3.37;;
85815;SDS011;76552;51.206;4.424;2024-02-26T00:18:17;6.85;;;3.33;;
85815;SDS011;76552;51.206;4.424;2024-02-26T00:18:22;6.97;;;3.40;;
85815;SDS011;76552;51.206;4.424;2024-02-26T00:18:28;6.77;;;3.30;;
85815;SDS011;76552;51.206;4.424;2024-02-26T00:18:33;6.85;;;3.25;;
85815;SDS011;76552;51.206;4.424;2024-02-26T00:18:39;6.73;;;3.20;;
85815;SDS011;76552;51.206;4.424;2024-02-26T00:18:44;6.85;;;3.20;;
85815;SDS011;76552;51.206;4.424;2024-02-26T00:18:49;6.83;;;3.20;;
85815;SDS011;76552;51.206;4.424;2024-02-26T00:18:54;6.83;;;3.27;;
85815;SDS011;76552;51.206;4.424;2024-02-26T00:19:00;6.75;;;3.30;;
85815;SDS011;76552;51.206;4.424;2024-02-26T00:19:05;6.53;;;3.30;;
85815;SDS011;76552;51.206;4.424;2024-02-26T00:19:10;7.23;;;3.30;;
85815;SDS011;76552;51.206;4.424;2024-02-26T00:19:15;7.23;;;3.20;;
85815;SDS011;76552;51.206;4.424;2024-02-26T00:19:21;7.22;;;3.15;;
85815;SDS011;76552;51.206;4.424;2024-02-26T00:19:26;7.47;;;3.20;;
85815;SDS011;76552;51.206;4.424;2024-02-26T00:19:31;7.97;;;3.13;;
85815;SDS011;76552;51.206;4.424;2024-02-26T00:19:37;7.85;;;3.10;;
85815;SDS011;76552;51.206;4.424;2024-02-26T00:19:42;7.27;;;3.10;;
85815;SDS011;76552;51.206;4.424;2024-02-26T00:19:47;7.03;;;3.10;;
85815;SDS011;76552;51.206;4.424;2024-02-26T00:19:52;6.40;;;3.03;;
85815;SDS011;76552;51.206;4.424;2024-02-26T00:19:58;6.18;;;3.03;;
85815;SDS011;76552;51.206;4.424;2024-02-26T00:20:03;5.90;;;3.00;;
85815;SDS011;76552;51.206;4.424;2024-02-26T00:20:13;5.91;;;3.09;;
85815;SDS011;76552;51.206;4.424;2024-02-26T00:20:19;6.27;;;3.23;;
85815;SDS011;76552;51.206;4.424;2024-02-26T00:20:24;6.72;;;3.28;;
85815;SDS011;76552;51.206;4.424;2024-02-26T00:20:29;6.80;;;3.30;;
85815;SDS011;76552;51.206;4.424;2024-02-26T00:20:34;6.60;;;3.23;;
85815;SDS011;76552;51.206;4.424;2024-02-26T00:20:40;6.45;;;3.10;;
85815;SDS011;76552;51.206;4.424;2024-02-26T00:20:48;6.35;;;2.95;;
85815;SDS011;76552;51.206;4.424;2024-02-26T00:20:53;6.23;;;2.90;;
85815;SDS011;76552;51.206;4.424;2024-02-26T00:20:59;6.32;;;2.95;;
85815;SDS011;76552;51.206;4.424;2024-02-26T00:21:04;6.30;;;3.07;;
85815;SDS011;76552;51.206;4.424;2024-02-26T00:21:09;6.50;;;3.03;;
85815;SDS011;76552;51.206;4.424;2024-02-26T00:21:15;6.43;;;3.08;;
85815;SDS011;76552;51.206;4.424;2024-02-26T00:21:20;6.07;;;3.07;;
85815;SDS011;76552;51.206;4.424;2024-02-26T00:21:26;5.88;;;2.97;;
85815;SDS011;76552;51.206;4.424;2024-02-26T00:21:31;5.90;;;2.83;;
85815;SDS011;76552;51.206;4.424;2024-02-26T00:21:39;5.80;;;2.80;;
85815;SDS011;76552;51.206;4.424;2024-02-26T00:21:45;5.74;;;2.90;;
85815;SDS011;76552;51.206;4.424;2024-02-26T00:21:50;5.83;;;2.90;;
85815;SDS011;76552;51.206;4.424;2024-02-26T00:21:55;6.03;;;2.90;;
85815;SDS011;76552;51.206;4.424;2024-02-26T00:22:01;6.10;;;3.00;;
85815;SDS011;76552;51.206;4.424;2024-02-26T00:22:06;6.17;;;3.00;;
85815;SDS011;76552;51.206;4.424;2024-02-26T00:22:11;6.33;;;3.10;;
85815;SDS011;76552;51.206;4.424;2024-02-26T00:22:16;6.50;;;3.10;;
85815;SDS011;76552;51.206;4.424;2024-02-26T00:22:22;6.55;;;3.10;;
85815;SDS011;76552;51.206;4.424;2024-02-26T00:22:27;6.47;;;3.03;;
85815;SDS011;76552;51.206;4.424;2024-02-26T00:22:33;6.50;;;2.95;;
85815;SDS011;76552;51.206;4.424;2024-02-26T00:22:38;6.57;;;2.90;;
85815;SDS011;76552;51.206;4.424;2024-02-26T00:22:43;7.27;;;2.90;;
85815;SDS011;76552;51.206;4.424;2024-02-26T00:22:48;7.22;;;2.90;;
85815;SDS011;76552;51.206;4.424;2024-02-26T00:22:54;7.23;;;3.00;;
85815;SDS011;76552;51.206;4.424;2024-02-26T00:22:59;7.20;;;3.00;;
85815;SDS011;76552;51.206;4.424;2024-02-26T00:23:04;7.40;;;3.03;;
85815;SDS011;76552;51.206;4.424;2024-02-26T00:23:10;6.75;;;3.00;;
85815;SDS011;76552;51.206;4.424;2024-02-26T00:23:15;6.60;;;3.10;;
85815;SDS011;76552;51.206;4.424;2024-02-26T00:23:21;6.57;;;2.97;;
85815;SDS011;76552;51.206;4.424;2024-02-26T00:23:28;6.38;;;2.94;;
85815;SDS011;76552;51.206;4.424;2024-02-26T00:23:33;6.03;;;3.00;;
85815;SDS011;76552;51.206;4.424;2024-02-26T00:23:38;6.03;;;2.97;;
85815;SDS011;76552;51.206;4.424;2024-02-26T00:23:44;5.90;;;2.90;;
85815;SDS011;76552;51.206;4.424;2024-02-26T00:23:49;6.13;;;3.00;;
85815;SDS011;76552;51.206;4.424;2024-02-26T00:23:55;6.10;;;3.00;;
85815;SDS011;76552;51.206;4.424;2024-02-26T00:24:00;6.00;;;2.87;;
85815;SDS011;76552;51.206;4.424;2024-02-26T00:24:06;6.30;;;2.97;;
85815;SDS011;76552;51.206;4.424;2024-02-26T00:24:11;6.70;;;3.07;;
85815;SDS011;76552;51.206;4.424;2024-02-26T00:24:16;6.37;;;3.17;;
85815;SDS011;76552;51.206;4.424;2024-02-26T00:24:22;6.28;;;3.10;;
85815;SDS011;76552;51.206;4.424;2024-02-26T00:24:27;6.40;;;3.10;;
85815;SDS011;76552;51.206;4.424;2024-02-26T00:24:32;6.53;;;3.10;;
85815;SDS011;76552;51.206;4.424;2024-02-26T00:24:39;6.60;;;3.10;;
85815;SDS011;76552;51.206;4.424;2024-02-26T00:24:44;7.23;;;3.10;;
85815;SDS011;76552;51.206;4.424;2024-02-26T00:24:50;7.33;;;3.10;;
85815;SDS011;76552;51.206;4.424;2024-02-26T00:24:55;7.40;;;3.10;;
85815;SDS011;76552;51.206;4.424;2024-02-26T00:25:00;7.22;;;3.10;;
85815;SDS011;76552;51.206;4.424;2024-02-26T00:25:06;6.93;;;3.00;;
85815;SDS011;76552;51.206;4.424;2024-02-26T00:25:11;6.73;;;2.80;;
85815;SDS011;76552;51.206;4.424;2024-02-26T00:25:17;6.03;;;2.80;;
85815;SDS011;76552;51.206;4.424;2024-02-26T00:25:22;6.18;;;2.85;;
85815;SDS011;76552;51.206;4.424;2024-02-26T00:25:28;6.30;;;2.90;;
85815;SDS011;76552;51.206;4.424;2024-02-26T00:25:33;6.47;;;2.93;;
85815;SDS011;76552;51.206;4.424;2024-02-26T00:25:38;6.47;;;2.97;;
85815;SDS011;76552;51.206;4.424;2024-02-26T00:25:44;6.33;;;2.90;;
85815;SDS011;76552;51.206;4.424;2024-02-26T00:25:49;6.30;;;2.90;;
85815;SDS011;76552;51.206;4.424;2024-02-26T00:25:54;6.32;;;2.95;;
85815;SDS011;76552;51.206;4.424;2024-02-26T00:26:00;6.20;;;3.00;;
85815;SDS011;76552;51.206;4.424;2024-02-26T00:26:05;6.80;;;2.90;;
85815;SDS011;76552;51.206;4.424;2024-02-26T00:26:10;6.65;;;2.95;;
85815;SDS011;76552;51.206;4.424;2024-02-26T00:26:16;6.70;;;3.10;;
85815;SDS011;76552;51.206;4.424;2024-02-26T00:26:21;6.60;;;3.10;;
85815;SDS011;76552;51.206;4.424;2024-02-26T00:26:27;6.50;;;3.00;;
85815;SDS011;76552;51.206;4.424;2024-02-26T00:26:32;6.50;;;3.07;;
85815;SDS011;76552;51.206;4.424;2024-02-26T00:26:37;6.40;;;3.10;;
85815;SDS011;76552;51.206;4.424;2024-02-26T00:26:42;6.33;;;3.00;;
85815;SDS011;76552;51.206;4.424;2024-02-26T00:26:48;6.20;;;2.90;;
85815;SDS011;76552;51.206;4.424;2024-02-26T00:26:58;6.10;;;2.80;;
85815;SDS011;76552;51.206;4.424;2024-02-26T00:27:04;5.88;;;2.80;;
85815;SDS011;76552;51.206;4.424;2024-02-26T00:27:09;5.73;;;2.80;;
85815;SDS011;76552;51.206;4.424;2024-02-26T00:27:14;5.80;;;2.80;;
85815;SDS011;76552;51.206;4.424;2024-02-26T00:27:20;6.07;;;2.93;;
85815;SDS011;76552;51.206;4.424;2024-02-26T00:27:25;6.33;;;3.00;;
85815;SDS011;76552;51.206;4.424;2024-02-26T00:27:30;6.47;;;3.00;;
85815;SDS011;76552;51.206;4.424;2024-02-26T00:27:35;6.53;;;3.00;;
85815;SDS011;76552;51.206;4.424;2024-02-26T00:27:41;6.87;;;3.10;;
85815;SDS011;76552;51.206;4.424;2024-02-26T00:27:47;7.78;;;3.20;;
85815;SDS011;76552;51.206;4.424;2024-02-26T00:27:52;7.50;;;3.13;;
85815;SDS011;76552;51.206;4.424;2024-02-26T00:27:57;7.25;;;3.20;;
85815;SDS011;76552;51.206;4.424;2024-02-26T00:28:04;7.07;;;3.20;;
85815;SDS011;76552;51.206;4.424;2024-02-26T00:28:10;6.60;;;3.02;;
85815;SDS011;76552;51.206;4.424;2024-02-26T00:28:15;5.90;;;3.03;;
85815;SDS011;76552;51.206;4.424;2024-02-26T00:28:20;6.40;;;3.10;;
85815;SDS011;76552;51.206;4.424;2024-02-26T00:28:26;6.63;;;3.07;;
85815;SDS011;76552;51.206;4.424;2024-02-26T00:28:32;6.90;;;3.10;;
85815;SDS011;76552;51.206;4.424;2024-02-26T00:28:37;6.90;;;3.10;;
85815;SDS011;76552;51.206;4.424;2024-02-26T00:28:43;6.93;;;3.10;;
85815;SDS011;76552;51.206;4.424;2024-02-26T00:28:48;6.53;;;3.00;;
85815;SDS011;76552;51.206;4.424;2024-02-26T00:28:54;6.00;;;3.00;;
85815;SDS011;76552;51.206;4.424;2024-02-26T00:28:59;6.00;;;2.95;;
85815;SDS011;76552;51.206;4.424;2024-02-26T00:29:05;6.07;;;2.90;;
85815;SDS011;76552;51.206;4.424;2024-02-26T00:29:10;6.70;;;2.93;;
85815;SDS011;76552;51.206;4.424;2024-02-26T00:29:15;6.72;;;2.95;;
85815;SDS011;76552;51.206;4.424;2024-02-26T00:29:21;7.33;;;3.00;;
85815;SDS011;76552;51.206;4.424;2024-02-26T00:29:26;7.30;;;3.03;;
85815;SDS011;76552;51.206;4.424;2024-02-26T00:29:32;7.37;;;3.10;;
85815;SDS011;76552;51.206;4.424;2024-02-26T00:29:37;7.43;;;3.13;;
85815;SDS011;76552;51.206;4.424;2024-02-26T00:29:42;7.73;;;3.13;;
85815;SDS011;76552;51.206;4.424;2024-02-26T00:29:48;7.37;;;3.07;;
85815;SDS011;76552;51.206;4.424;2024-02-26T00:29:53;7.35;;;3.10;;
85815;SDS011;76552;51.206;4.424;2024-02-26T00:29:58;7.77;;;3.10;;
85815;SDS011;76552;51.206;4.424;2024-02-26T00:30:04;7.70;;;3.10;;
85815;SDS011;76552;51.206;4.424;2024-02-26T00:30:09;7.18;;;3.20;;
85815;SDS011;76552;51.206;4.424;2024-02-26T00:30:15;6.80;;;3.20;;
85815;SDS011;76552;51.206;4.424;2024-02-26T00:30:20;6.68;;;3.20;;
85815;SDS011;76552;51.206;4.424;2024-02-26T00:30:25;6.67;;;3.20;;
85815;SDS011;76552;51.206;4.424;2024-02-26T00:30:31;6.33;;;3.20;;
85815;SDS011;76552;51.206;4.424;2024-02-26T00:30:36;6.22;;;3.10;;
85815;SDS011;76552;51.206;4.424;2024-02-26T00:30:41;6.03;;;3.03;;
85815;SDS011;76552;51.206;4.424;2024-02-26T00:30:47;6.60;;;3.07;;
85815;SDS011;76552;51.206;4.424;2024-02-26T00:30:52;6.63;;;2.97;;
85815;SDS011;76552;51.206;4.424;2024-02-26T00:31:01;6.53;;;2.87;;
85815;SDS011;76552;51.206;4.424;2024-02-26T00:31:06;7.07;;;2.87;;
85815;SDS011;76552;51.206;4.424;2024-02-26T00:31:11;6.93;;;2.80;;
85815;SDS011;76552;51.206;4.424;2024-02-26T00:31:16;6.20;;;2.73;;
85815;SDS011;76552;51.206;4.424;2024-02-26T00:31:22;6.27;;;2.80;;
85815;SDS011;76552;51.206;4.424;2024-02-26T00:31:27;6.43;;;2.80;;
85815;SDS011;76552;51.206;4.424;2024-02-26T00:31:33;6.30;;;2.90;;
85815;SDS011;76552;51.206;4.424;2024-02-26T00:31:38;6.07;;;2.97;;
85815;SDS011;76552;51.206;4.424;2024-02-26T00:31:43;6.50;;;3.03;;
85815;SDS011;76552;51.206;4.424;2024-02-26T00:31:49;6.50;;;3.00;;
85815;SDS011;76552;51.206;4.424;2024-02-26T00:31:54;6.32;;;2.90;;
85815;SDS011;76552;51.206;4.424;2024-02-26T00:31:59;6.33;;;2.90;;
85815;SDS011;76552;51.206;4.424;2024-02-26T00:32:05;6.80;;;2.90;;
85815;SDS011;76552;51.206;4.424;2024-02-26T00:32:10;7.18;;;2.90;;
85815;SDS011;76552;51.206;4.424;2024-02-26T00:32:15;7.40;;;3.00;;
85815;SDS011;76552;51.206;4.424;2024-02-26T00:32:20;7.80;;;3.10;;
85815;SDS011;76552;51.206;4.424;2024-02-26T00:32:26;7.67;;;3.10;;
85815;SDS011;76552;51.206;4.424;2024-02-26T00:32:31;8.00;;;3.20;;
85815;SDS011;76552;51.206;4.424;2024-02-26T00:32:36;7.80;;;3.27;;
85815;SDS011;76552;51.206;4.424;2024-02-26T00:32:42;7.67;;;3.27;;
85815;SDS011;76552;51.206;4.424;2024-02-26T00:32:47;7.43;;;3.30;;
85815;SDS011;76552;51.206;4.424;2024-02-26T00:32:52;7.70;;;3.33;;
85815;SDS011;76552;51.206;4.424;2024-02-26T00:32:57;7.83;;;3.30;;
85815;SDS011;76552;51.206;4.424;2024-02-26T00:33:03;7.53;;;3.25;;
85815;SDS011;76552;51.206;4.424;2024-02-26T00:33:08;7.37;;;3.20;;
85815;SDS011;76552;51.206;4.424;2024-02-26T00:33:16;7.10;;;3.10;;
85815;SDS011;76552;51.206;4.424;2024-02-26T00:33:22;7.03;;;3.10;;